createdAt,value
2022-07-28T00:00:08.301Z,2.53
2022-07-28T00:05:01.794Z,3.63
2022-07-28T00:07:28.441Z,2.47
2022-07-28T00:10:00.119Z,3.03
2022-07-28T00:12:27.315Z,5.75
2022-07-28T00:14:53.945Z,2.92
2022-07-28T00:17:20.563Z,2.70
2022-07-28T00:19:47.226Z,2.55
2022-07-28T00:22:13.886Z,4.93
2022-07-28T00:24:41.254Z,3.83
2022-07-28T00:27:08.284Z,4.68
2022-07-28T00:29:42.524Z,5.53
2022-07-28T00:32:17.537Z,3.83
2022-07-28T00:34:44.495Z,2.90
2022-07-28T00:37:14.517Z,4.47
2022-07-28T00:39:42.162Z,4.07
2022-07-28T00:42:09.088Z,3.05
2022-07-28T00:44:35.778Z,3.47
2022-07-28T00:47:02.452Z,4.40
2022-07-28T00:49:29.121Z,2.92
2022-07-28T00:51:56.691Z,3.67
2022-07-28T00:54:23.447Z,4.47
2022-07-28T00:56:50.899Z,3.25
2022-07-28T00:59:17.633Z,5.72
2022-07-28T01:01:44.408Z,7.82
2022-07-28T01:04:11.599Z,2.55
2022-07-28T01:07:08.690Z,4.28
2022-07-28T01:09:58.593Z,4.40
2022-07-28T01:12:45.752Z,4.35
2022-07-28T01:15:12.438Z,3.78
2022-07-28T01:17:44.906Z,4.82
2022-07-28T01:20:23.735Z,3.63
2022-07-28T01:23:08.866Z,5.95
2022-07-28T01:26:02.538Z,4.35
2022-07-28T01:28:50.800Z,3.45
2022-07-28T01:31:23.588Z,6.25
2022-07-28T01:33:56.764Z,7.90
2022-07-28T01:36:29.320Z,4.72
2022-07-28T01:38:56.858Z,7.53
2022-07-28T01:41:27.782Z,6.45
2022-07-28T01:44:01.940Z,5.18
2022-07-28T01:46:29.745Z,4.50
2022-07-28T01:48:58.263Z,5.10
2022-07-28T01:51:28.493Z,5.63
2022-07-28T01:53:58.429Z,4.75
2022-07-28T01:56:27.037Z,5.38
2022-07-28T01:58:55.855Z,4.75
2022-07-28T02:01:25.368Z,6.03
2022-07-28T02:03:54.560Z,7.03
2022-07-28T02:06:23.153Z,4.35
2022-07-28T02:08:53.110Z,6.90
2022-07-28T02:11:38.841Z,4.57
2022-07-28T02:14:13.017Z,4.13
2022-07-28T02:16:44.642Z,5.00
2022-07-28T02:21:41.768Z,6.13
2022-07-28T02:24:10.751Z,5.80
2022-07-28T02:26:42.460Z,8.93
2022-07-28T02:29:33.362Z,5.85
2022-07-28T02:32:26.822Z,5.85
2022-07-28T02:35:23.840Z,5.88
2022-07-28T02:37:57.431Z,6.65
2022-07-28T02:40:29.741Z,5.53
2022-07-28T02:42:59.025Z,7.03
2022-07-28T02:45:28.087Z,5.95
2022-07-28T02:48:00.383Z,10.88
2022-07-28T02:50:28.733Z,7.15
2022-07-28T02:52:58.965Z,5.07
2022-07-28T02:55:26.330Z,5.82
2022-07-28T02:57:56.770Z,5.65
2022-07-28T03:00:25.296Z,6.13
2022-07-28T03:02:54.524Z,5.88
2022-07-28T03:05:21.443Z,6.38
2022-07-28T03:07:52.694Z,4.88
2022-07-28T03:10:34.012Z,5.15
2022-07-28T03:13:03.757Z,5.78
2022-07-28T03:15:31.195Z,8.32
2022-07-28T03:17:58.484Z,5.82
2022-07-28T03:20:25.213Z,10.82
2022-07-28T03:22:51.857Z,5.63
2022-07-28T03:25:50.762Z,7.43
2022-07-28T03:28:22.027Z,7.00
2022-07-28T03:30:55.899Z,5.70
2022-07-28T03:33:23.451Z,6.70
2022-07-28T03:35:52.241Z,5.85
2022-07-28T03:38:59.255Z,6.45
2022-07-28T03:41:28.071Z,6.70
2022-07-28T03:43:55.504Z,11.10
2022-07-28T03:46:23.351Z,7.22
2022-07-28T03:48:50.011Z,6.00
2022-07-28T03:51:16.728Z,7.93
2022-07-28T03:53:44.488Z,6.53
2022-07-28T03:56:11.101Z,6.07
2022-07-28T03:58:37.714Z,6.47
2022-07-28T04:01:04.542Z,7.15
2022-07-28T04:03:43.272Z,7.30
2022-07-28T04:06:15.290Z,6.28
2022-07-28T04:08:42.706Z,6.82
2022-07-28T04:11:09.382Z,7.35
2022-07-28T04:13:39.051Z,7.70
2022-07-28T04:16:07.069Z,5.68
2022-07-28T04:18:34.501Z,8.63
2022-07-28T04:21:01.137Z,7.53
2022-07-28T04:23:28.105Z,7.30
2022-07-28T04:25:55.311Z,6.43
2022-07-28T04:28:22.076Z,7.60
2022-07-28T04:30:48.728Z,8.88
2022-07-28T04:33:15.407Z,6.97
2022-07-28T04:35:42.063Z,9.75
2022-07-28T04:38:08.728Z,8.38
2022-07-28T04:40:35.515Z,9.13
2022-07-28T04:43:03.836Z,8.45
2022-07-28T04:45:30.795Z,9.65
2022-07-28T04:47:57.438Z,5.65
2022-07-28T04:50:24.064Z,9.60
2022-07-28T04:52:57.608Z,6.90
2022-07-28T04:55:24.611Z,8.35
2022-07-28T04:57:51.278Z,8.57
2022-07-28T05:00:18.259Z,7.32
2022-07-28T05:02:45.848Z,7.13
2022-07-28T05:05:13.364Z,6.68
2022-07-28T05:07:43.538Z,7.70
2022-07-28T05:10:12.659Z,7.25
2022-07-28T05:12:39.471Z,9.85
2022-07-28T05:15:07.034Z,7.30
2022-07-28T05:17:33.830Z,10.40
2022-07-28T05:20:00.481Z,8.38
2022-07-28T05:22:42.120Z,8.35
2022-07-28T05:25:17.349Z,7.97
2022-07-28T05:27:45.262Z,7.82
2022-07-28T05:30:12.772Z,7.90
2022-07-28T05:32:39.507Z,12.30
2022-07-28T05:35:06.964Z,8.30
2022-07-28T05:37:37.457Z,11.68
2022-07-28T05:40:10.114Z,13.87
2022-07-28T05:42:36.886Z,10.38
2022-07-28T05:45:17.108Z,15.55
2022-07-28T05:47:46.187Z,8.60
2022-07-28T05:50:14.695Z,8.68
2022-07-28T05:52:41.851Z,9.57
2022-07-28T05:55:09.837Z,10.13
2022-07-28T05:57:37.654Z,10.65
2022-07-28T06:00:13.322Z,9.05
2022-07-28T06:02:41.014Z,9.05
2022-07-28T06:05:08.159Z,10.32
2022-07-28T06:07:44.116Z,10.35
2022-07-28T06:10:18.290Z,10.98
2022-07-28T06:12:50.164Z,8.20
2022-07-28T06:15:17.966Z,10.48
2022-07-28T06:17:45.183Z,9.50
2022-07-28T06:20:12.563Z,10.48
2022-07-28T06:22:50.345Z,11.98
2022-07-28T06:25:19.907Z,10.10
2022-07-28T06:27:51.306Z,8.02
2022-07-28T06:30:18.990Z,7.45
2022-07-28T06:32:46.376Z,9.35
2022-07-28T06:35:16.361Z,10.18
2022-07-28T06:37:47.546Z,7.32
2022-07-28T06:42:42.950Z,7.82
2022-07-28T06:45:20.639Z,7.78
2022-07-28T06:47:49.750Z,8.70
2022-07-28T06:50:24.587Z,8.27
2022-07-28T06:52:54.304Z,8.15
2022-07-28T06:55:21.199Z,8.77
2022-07-28T06:57:49.205Z,7.90
2022-07-28T07:00:16.162Z,6.60
2022-07-28T07:02:43.058Z,8.82
2022-07-28T07:05:11.621Z,6.95
2022-07-28T07:07:42.793Z,6.88
2022-07-28T07:10:11.537Z,6.82
2022-07-28T07:12:38.311Z,7.53
2022-07-28T07:15:06.001Z,7.63
2022-07-28T07:17:32.847Z,5.85
2022-07-28T07:19:59.536Z,7.15
2022-07-28T07:22:26.191Z,6.97
2022-07-28T07:24:56.901Z,17.65
2022-07-28T07:27:24.623Z,6.03
2022-07-28T07:29:51.292Z,6.13
2022-07-28T07:32:17.943Z,5.55
2022-07-28T07:34:44.566Z,4.10
2022-07-28T07:37:13.728Z,6.60
2022-07-28T07:39:41.480Z,3.55
2022-07-28T07:42:08.555Z,4.93
2022-07-28T07:44:35.432Z,7.07
2022-07-28T07:47:02.216Z,5.10
2022-07-28T07:49:45.268Z,4.93
2022-07-28T07:52:12.780Z,5.32
2022-07-28T07:54:39.392Z,5.10
2022-07-28T07:57:06.044Z,6.63
2022-07-28T07:59:32.731Z,5.15
2022-07-28T08:02:00.099Z,6.80
2022-07-28T08:04:27.006Z,6.50
2022-07-28T08:06:55.661Z,7.00
2022-07-28T08:09:23.326Z,4.53
2022-07-28T08:11:50.086Z,5.18
2022-07-28T08:14:17.581Z,7.97
2022-07-28T08:16:44.844Z,4.38
2022-07-28T08:19:11.758Z,3.42
2022-07-28T08:21:38.524Z,3.92
2022-07-28T08:24:05.552Z,5.47
2022-07-28T08:26:32.226Z,3.65
2022-07-28T08:28:58.856Z,3.90
2022-07-28T08:31:25.630Z,3.50
2022-07-28T08:33:54.140Z,4.53
2022-07-28T08:36:21.521Z,4.30
2022-07-28T08:38:48.211Z,3.47
2022-07-28T08:41:42.719Z,3.22
2022-07-28T08:44:14.346Z,3.10
2022-07-28T08:46:43.281Z,4.50
2022-07-28T08:49:10.949Z,4.10
2022-07-28T08:51:42.441Z,3.55
2022-07-28T08:54:10.769Z,5.38
2022-07-28T08:56:48.070Z,2.35
2022-07-28T08:59:15.331Z,2.00
2022-07-28T09:01:42.432Z,4.20
2022-07-28T09:04:09.925Z,4.93
2022-07-28T09:06:42.157Z,3.35
2022-07-28T09:09:09.937Z,3.63
2022-07-28T09:11:39.716Z,2.78
2022-07-28T09:14:06.609Z,2.33
2022-07-28T09:16:33.404Z,2.08
2022-07-28T09:19:00.133Z,3.25
2022-07-28T09:21:27.065Z,2.80
2022-07-28T09:23:53.680Z,3.97
2022-07-28T09:26:20.358Z,3.83
2022-07-28T09:28:57.923Z,4.65
2022-07-28T09:31:26.813Z,4.38
2022-07-28T09:34:02.397Z,2.13
2022-07-28T09:36:37.522Z,2.28
2022-07-28T09:39:04.691Z,1.95
2022-07-28T09:41:48.139Z,1.90
2022-07-28T09:44:19.914Z,3.38
2022-07-28T09:46:47.116Z,3.83
2022-07-28T09:49:14.103Z,3.72
2022-07-28T09:51:41.418Z,2.28
2022-07-28T09:54:12.611Z,2.90
2022-07-28T09:56:41.836Z,1.90
2022-07-28T09:59:09.195Z,2.97
2022-07-28T10:02:01.676Z,5.97
2022-07-28T10:04:33.440Z,4.95
2022-07-28T10:07:14.286Z,4.00
2022-07-28T10:09:41.905Z,2.55
2022-07-28T10:12:20.667Z,4.20
2022-07-28T10:14:52.304Z,4.03
2022-07-28T10:17:33.714Z,3.25
2022-07-28T10:20:07.286Z,2.90
2022-07-28T10:22:42.828Z,3.03
2022-07-28T10:25:12.567Z,2.88
2022-07-28T10:27:43.091Z,4.93
2022-07-28T10:30:10.746Z,3.47
2022-07-28T10:32:45.218Z,3.35
2022-07-28T10:35:13.345Z,3.33
2022-07-28T10:38:00.189Z,3.05
2022-07-28T10:40:35.483Z,7.13
2022-07-28T10:43:02.813Z,2.95
2022-07-28T10:45:55.275Z,1.83
2022-07-28T10:48:20.463Z,3.90
2022-07-28T10:50:51.846Z,2.45
2022-07-28T10:53:53.187Z,2.50
2022-07-28T10:56:33.395Z,2.20
2022-07-28T10:59:15.422Z,2.87
2022-07-28T11:04:47.956Z,2.72
2022-07-28T11:07:17.054Z,4.03
2022-07-28T11:09:45.628Z,4.18
2022-07-28T11:12:15.293Z,3.35
2022-07-28T11:14:43.724Z,5.40
2022-07-28T11:17:11.354Z,2.80
2022-07-28T11:20:07.032Z,3.13
2022-07-28T11:22:33.288Z,1.83
2022-07-28T11:25:18.538Z,1.87
2022-07-28T11:27:54.381Z,2.03
2022-07-28T11:30:36.122Z,2.00
2022-07-28T11:33:07.735Z,2.20
2022-07-28T11:35:40.862Z,6.68
2022-07-28T11:38:10.129Z,1.50
2022-07-28T11:40:44.376Z,5.55
2022-07-28T11:43:35.393Z,3.00
2022-07-28T11:46:10.040Z,2.05
2022-07-28T11:48:46.031Z,2.78
2022-07-28T11:51:14.070Z,1.85
2022-07-28T11:53:47.966Z,1.83
2022-07-28T11:56:29.323Z,6.45
2022-07-28T11:59:01.665Z,2.38
2022-07-28T12:01:31.975Z,3.20
2022-07-28T12:06:37.244Z,1.98
2022-07-28T12:09:09.271Z,4.05
2022-07-28T12:11:38.809Z,2.97
2022-07-28T12:14:06.312Z,3.22
2022-07-28T12:16:35.156Z,1.55
2022-07-28T12:19:02.888Z,1.80
2022-07-28T12:21:49.214Z,4.65
2022-07-28T12:24:19.165Z,3.63
2022-07-28T12:26:49.597Z,5.32
2022-07-28T12:32:02.084Z,3.40
2022-07-28T12:34:30.796Z,3.20
2022-07-28T12:37:02.691Z,2.92
2022-07-28T12:39:30.937Z,2.15
2022-07-28T12:42:08.921Z,1.80
2022-07-28T12:44:51.234Z,2.28
2022-07-28T12:47:26.938Z,2.25
2022-07-28T12:50:13.971Z,2.50
2022-07-28T12:52:45.724Z,4.65
2022-07-28T12:55:32.661Z,2.53
2022-07-28T12:57:59.942Z,1.52
2022-07-28T13:00:33.373Z,3.05
2022-07-28T13:03:19.138Z,2.05
2022-07-28T13:06:04.141Z,1.23
2022-07-28T13:08:48.936Z,3.17
2022-07-28T13:11:42.394Z,3.95
2022-07-28T13:14:04.193Z,5.05
2022-07-28T13:16:30.871Z,1.55
2022-07-28T13:19:02.586Z,4.15
2022-07-28T13:21:56.606Z,1.85
2022-07-28T13:24:27.426Z,2.83
2022-07-28T13:26:54.070Z,4.13
2022-07-28T13:29:20.911Z,1.98
2022-07-28T13:31:47.556Z,1.73
2022-07-28T13:34:14.982Z,2.58
2022-07-28T13:36:42.163Z,2.88
2022-07-28T13:39:13.778Z,1.40
2022-07-28T13:41:57.783Z,3.05
2022-07-28T13:44:29.157Z,1.55
2022-07-28T13:46:58.913Z,2.13
2022-07-28T13:49:27.469Z,1.88
2022-07-28T13:51:54.827Z,2.17
2022-07-28T13:54:21.503Z,3.70
2022-07-28T13:56:48.929Z,2.05
2022-07-28T13:59:36.188Z,3.67
2022-07-28T14:02:05.210Z,2.22
2022-07-28T14:04:31.977Z,2.20
2022-07-28T14:06:59.323Z,2.75
2022-07-28T14:09:26.045Z,2.33
2022-07-28T14:11:53.615Z,2.05
2022-07-28T14:14:25.076Z,3.08
2022-07-28T14:16:54.329Z,2.22
2022-07-28T14:19:23.511Z,3.45
2022-07-28T14:22:09.165Z,2.22
2022-07-28T14:24:39.073Z,1.70
2022-07-28T14:27:05.739Z,1.63
2022-07-28T14:29:33.514Z,1.70
2022-07-28T14:32:00.158Z,4.30
2022-07-28T14:34:26.871Z,1.75
2022-07-28T14:36:53.502Z,1.58
2022-07-28T14:39:20.330Z,2.47
2022-07-28T14:41:46.959Z,4.45
2022-07-28T14:44:23.751Z,3.72
2022-07-28T14:46:51.587Z,3.92
2022-07-28T14:49:18.951Z,1.90
2022-07-28T14:51:45.928Z,4.57
2022-07-28T14:54:12.878Z,1.77
2022-07-28T14:56:39.766Z,1.83
2022-07-28T14:59:06.438Z,1.50
2022-07-28T15:01:36.115Z,1.33
2022-07-28T15:04:03.853Z,3.30
2022-07-28T15:06:30.530Z,2.38
2022-07-28T15:08:58.329Z,10.32
2022-07-28T15:11:25.809Z,2.05
2022-07-28T15:13:52.489Z,1.52
2022-07-28T15:16:19.158Z,2.42
2022-07-28T15:18:45.908Z,1.42
2022-07-28T15:21:16.563Z,1.63
2022-07-28T15:23:43.853Z,2.83
2022-07-28T15:26:10.933Z,3.83
2022-07-28T15:28:37.752Z,2.17
2022-07-28T15:31:04.701Z,2.15
2022-07-28T15:33:42.529Z,4.13
2022-07-28T15:36:15.678Z,2.20
2022-07-28T15:38:47.454Z,2.10
2022-07-28T15:41:16.263Z,3.55
2022-07-28T15:43:42.907Z,1.52
2022-07-28T15:46:12.929Z,1.95
2022-07-28T15:48:42.823Z,1.98
2022-07-28T15:51:10.002Z,1.77
2022-07-28T15:53:36.958Z,3.42
2022-07-28T15:56:04.781Z,2.78
2022-07-28T15:58:31.813Z,1.10
2022-07-28T16:00:59.248Z,2.22
2022-07-28T16:03:28.378Z,1.38
2022-07-28T16:05:55.067Z,2.15
2022-07-28T16:08:22.948Z,3.50
2022-07-28T16:10:51.602Z,1.52
2022-07-28T16:13:26.957Z,2.08
2022-07-28T16:16:09.071Z,2.38
2022-07-28T16:18:37.103Z,1.52
2022-07-28T16:21:04.923Z,2.58
2022-07-28T16:23:31.615Z,3.25
2022-07-28T16:25:58.284Z,2.13
2022-07-28T16:28:25.296Z,4.05
2022-07-28T16:30:52.248Z,2.00
2022-07-28T16:33:19.451Z,3.63
2022-07-28T16:35:46.085Z,3.13
2022-07-28T16:38:12.807Z,2.45
2022-07-28T16:40:39.720Z,8.63
2022-07-28T16:43:06.901Z,1.60
2022-07-28T16:45:34.791Z,2.35
2022-07-28T16:48:05.218Z,1.70
2022-07-28T16:50:33.165Z,1.42
2022-07-28T16:53:00.399Z,2.83
2022-07-28T16:55:27.170Z,4.45
2022-07-28T16:57:54.089Z,1.60
2022-07-28T17:00:21.346Z,3.45
2022-07-28T17:02:48.085Z,2.40
2022-07-28T17:05:14.721Z,2.92
2022-07-28T17:07:45.230Z,4.22
2022-07-28T17:10:14.140Z,2.45
2022-07-28T17:12:41.337Z,5.28
2022-07-28T17:15:20.058Z,3.10
2022-07-28T17:17:52.677Z,2.08
2022-07-28T17:20:20.112Z,2.53
2022-07-28T17:22:47.111Z,5.18
2022-07-28T17:25:52.383Z,2.35
2022-07-28T17:28:00.640Z,1.70
2022-07-28T17:30:28.086Z,2.95
2022-07-28T17:32:58.857Z,2.80
2022-07-28T17:35:34.310Z,2.25
2022-07-28T17:38:03.961Z,1.40
2022-07-28T17:40:30.641Z,1.63
2022-07-28T17:42:57.351Z,3.47
2022-07-28T17:45:24.387Z,1.83
2022-07-28T17:47:51.677Z,2.35
2022-07-28T17:50:19.167Z,3.92
2022-07-28T17:52:46.486Z,3.15
2022-07-28T17:55:34.475Z,1.92
2022-07-28T17:58:27.980Z,1.45
2022-07-28T18:01:11.083Z,3.90
2022-07-28T18:03:58.499Z,2.30
2022-07-28T18:06:33.853Z,3.08
2022-07-28T18:09:06.827Z,2.90
2022-07-28T18:11:55.763Z,2.80
2022-07-28T18:16:55.941Z,2.97
2022-07-28T18:19:22.629Z,2.58
2022-07-28T18:21:49.261Z,2.33
2022-07-28T18:24:16.365Z,3.05
2022-07-28T18:26:43.669Z,2.47
2022-07-28T18:29:10.251Z,2.42
2022-07-28T18:31:43.899Z,2.22
2022-07-28T18:34:13.220Z,3.45
2022-07-28T18:36:40.091Z,2.40
2022-07-28T18:39:06.781Z,4.95
2022-07-28T18:41:34.568Z,2.25
2022-07-28T18:44:15.772Z,3.80
2022-07-28T18:46:42.813Z,1.83
2022-07-28T18:49:09.557Z,4.68
2022-07-28T18:51:36.790Z,2.10
2022-07-28T18:54:03.643Z,2.28
2022-07-28T18:56:31.529Z,1.73
2022-07-28T18:58:58.223Z,4.40
2022-07-28T19:01:24.926Z,3.60
2022-07-28T19:03:51.543Z,4.03
2022-07-28T19:06:18.372Z,7.00
2022-07-28T19:08:47.890Z,8.98
2022-07-28T19:11:19.547Z,8.23
2022-07-28T19:13:46.724Z,3.50
2022-07-28T19:16:13.623Z,1.42
2022-07-28T19:18:40.585Z,3.20
2022-07-28T19:21:08.003Z,5.70
2022-07-28T19:23:34.595Z,1.92
2022-07-28T19:26:02.177Z,3.33
2022-07-28T19:28:29.251Z,5.47
2022-07-28T19:30:58.507Z,7.68
2022-07-28T19:33:26.023Z,2.17
2022-07-28T19:35:52.718Z,2.47
2022-07-28T19:38:19.471Z,2.13
2022-07-28T19:40:46.116Z,2.60
2022-07-28T19:43:12.792Z,3.33
2022-07-28T19:45:39.487Z,3.05
2022-07-28T19:48:07.399Z,2.47
2022-07-28T19:50:36.132Z,4.13
2022-07-28T19:53:02.848Z,3.67
2022-07-28T19:55:32.270Z,2.35
2022-07-28T19:58:01.804Z,3.38
2022-07-28T20:00:28.741Z,2.13
2022-07-28T20:02:55.457Z,3.13
2022-07-28T20:05:22.228Z,2.13
2022-07-28T20:07:49.243Z,2.53
2022-07-28T20:10:15.956Z,2.03
2022-07-28T20:12:42.624Z,2.75
2022-07-28T20:15:09.634Z,1.98
2022-07-28T20:17:39.040Z,2.47
2022-07-28T20:20:08.345Z,6.00
2022-07-28T20:22:35.570Z,2.67
2022-07-28T20:25:02.262Z,2.33
2022-07-28T20:27:28.864Z,2.67
2022-07-28T20:29:59.196Z,2.67
2022-07-28T20:32:25.954Z,1.23
2022-07-28T20:34:52.604Z,2.70
2022-07-28T20:37:31.382Z,2.25
2022-07-28T20:40:06.144Z,1.48
2022-07-28T20:42:32.882Z,1.67
2022-07-28T20:44:59.482Z,2.13
2022-07-28T20:47:27.914Z,2.22
2022-07-28T20:49:55.254Z,6.15
2022-07-28T20:52:22.198Z,2.63
2022-07-28T20:54:54.073Z,2.55
2022-07-28T20:57:21.733Z,2.10
2022-07-28T20:59:51.057Z,1.55
2022-07-28T21:02:18.776Z,1.23
2022-07-28T21:04:45.499Z,2.05
2022-07-28T21:07:12.156Z,1.85
2022-07-28T21:09:39.642Z,1.52
2022-07-28T21:12:06.744Z,2.20
2022-07-28T21:14:33.449Z,2.80
2022-07-28T21:17:00.370Z,2.15
2022-07-28T21:19:27.060Z,0.93
2022-07-28T21:21:53.714Z,1.85
2022-07-28T21:24:20.485Z,5.35
2022-07-28T21:26:49.728Z,2.10
2022-07-28T21:32:04.966Z,1.10
2022-07-28T21:34:30.875Z,3.28
2022-07-28T21:36:58.266Z,0.57
2022-07-28T21:39:25.422Z,0.63
2022-07-28T21:41:52.223Z,0.80
2022-07-28T21:44:18.973Z,0.88
2022-07-28T21:46:45.801Z,3.20
2022-07-28T21:49:12.517Z,0.30
2022-07-28T21:51:39.914Z,0.13
2022-07-28T21:54:06.819Z,0.10
2022-07-28T21:56:34.785Z,1.17
2022-07-28T21:59:02.686Z,0.28
2022-07-28T22:01:29.929Z,0.32
2022-07-28T22:03:57.327Z,1.48
2022-07-28T22:06:24.253Z,0.40
2022-07-28T22:08:53.772Z,0.57
2022-07-28T22:11:23.734Z,1.55
2022-07-28T22:13:50.600Z,0.47
2022-07-28T22:16:17.370Z,0.50
2022-07-28T22:18:44.156Z,0.28
2022-07-28T22:21:10.828Z,0.50
2022-07-28T22:23:37.489Z,1.02
2022-07-28T22:26:04.146Z,1.27
2022-07-28T22:28:30.973Z,0.38
2022-07-28T22:30:58.947Z,0.40
2022-07-28T22:33:36.282Z,0.35
2022-07-28T22:36:04.448Z,2.00
2022-07-28T22:38:31.401Z,0.63
2022-07-28T22:40:58.557Z,0.77
2022-07-28T22:43:25.232Z,2.67
2022-07-28T22:45:51.983Z,0.80
2022-07-28T22:48:19.078Z,0.57
2022-07-28T22:50:45.690Z,1.90
2022-07-28T22:53:12.350Z,0.90
2022-07-28T22:55:39.968Z,4.03
2022-07-28T22:58:06.624Z,3.55
2022-07-28T23:00:33.742Z,0.50
2022-07-28T23:03:04.514Z,1.45
2022-07-28T23:05:31.289Z,2.38
2022-07-28T23:07:58.687Z,3.33
2022-07-28T23:10:26.508Z,1.38
2022-07-28T23:12:55.178Z,1.90
2022-07-28T23:15:24.018Z,0.68
2022-07-28T23:18:06.421Z,0.68
2022-07-28T23:20:33.026Z,2.60
2022-07-28T23:22:59.643Z,2.83
2022-07-28T23:25:26.256Z,1.00
2022-07-28T23:27:52.879Z,1.02
2022-07-28T23:30:19.604Z,1.83
2022-07-28T23:32:46.262Z,1.60
2022-07-28T23:35:13.049Z,1.30
2022-07-28T23:37:39.623Z,1.00
2022-07-28T23:40:06.941Z,0.88
2022-07-28T23:42:33.539Z,1.25
2022-07-28T23:45:00.166Z,1.42
2022-07-28T23:47:26.797Z,1.30
2022-07-28T23:49:53.671Z,1.38
2022-07-28T23:52:20.294Z,1.30
2022-07-28T23:54:46.888Z,0.80
2022-07-28T23:57:13.555Z,1.38
2022-07-28T23:59:40.153Z,1.10
